createdAt,value
2017-12-08T00:00:22.623Z,99.90
2017-12-08T00:02:50.490Z,99.90
2017-12-08T00:05:18.360Z,99.90
2017-12-08T00:07:46.225Z,99.90
2017-12-08T00:10:14.091Z,99.90
2017-12-08T00:12:41.959Z,99.90
2017-12-08T00:15:09.827Z,99.90
2017-12-08T00:17:37.694Z,99.90
2017-12-08T00:20:05.562Z,99.90
2017-12-08T00:22:33.428Z,99.90
2017-12-08T00:25:01.296Z,99.90
2017-12-08T00:27:29.163Z,99.90
2017-12-08T00:29:57.031Z,99.90
2017-12-08T00:32:24.898Z,99.90
2017-12-08T00:34:52.765Z,99.90
2017-12-08T00:37:20.634Z,99.90
2017-12-08T00:39:48.500Z,99.90
2017-12-08T00:42:16.367Z,99.90
2017-12-08T00:44:44.234Z,99.90
2017-12-08T00:47:12.102Z,99.90
2017-12-08T00:49:39.968Z,99.90
2017-12-08T00:52:07.840Z,99.90
2017-12-08T00:54:35.703Z,99.90
2017-12-08T00:57:03.571Z,99.90
2017-12-08T00:59:31.437Z,99.90
2017-12-08T01:01:59.307Z,99.90
2017-12-08T01:04:27.177Z,99.90
2017-12-08T01:06:55.040Z,99.90
2017-12-08T01:09:22.908Z,99.90
2017-12-08T01:11:50.775Z,99.90
2017-12-08T01:14:18.643Z,99.90
2017-12-08T01:16:46.510Z,99.90
2017-12-08T01:19:14.377Z,99.90
2017-12-08T01:21:42.246Z,99.90
2017-12-08T01:24:10.114Z,99.90
2017-12-08T01:26:37.979Z,99.90
2017-12-08T01:29:05.846Z,99.90
2017-12-08T01:31:33.713Z,99.90
2017-12-08T01:34:01.581Z,99.90
2017-12-08T01:36:29.448Z,99.90
2017-12-08T01:38:57.316Z,99.90
2017-12-08T01:41:25.183Z,99.90
2017-12-08T01:43:53.050Z,99.90
2017-12-08T01:46:20.917Z,99.90
2017-12-08T01:48:48.784Z,99.90
2017-12-08T01:51:16.652Z,99.90
2017-12-08T01:53:44.519Z,99.90
2017-12-08T01:56:12.387Z,99.90
2017-12-08T01:58:40.254Z,99.90
2017-12-08T02:01:08.121Z,99.90
2017-12-08T02:03:35.989Z,99.90
2017-12-08T02:06:03.855Z,99.90
2017-12-08T02:08:31.727Z,99.90
2017-12-08T02:10:59.594Z,99.90
2017-12-08T02:13:27.457Z,99.90
2017-12-08T02:15:55.326Z,99.90
2017-12-08T02:18:23.192Z,99.90
2017-12-08T02:20:51.060Z,99.90
2017-12-08T02:23:18.934Z,99.90
2017-12-08T02:25:46.795Z,99.90
2017-12-08T02:28:14.663Z,99.90
2017-12-08T02:30:42.528Z,99.90
2017-12-08T02:33:10.398Z,99.90
2017-12-08T02:35:38.264Z,99.90
2017-12-08T02:38:06.130Z,99.90
2017-12-08T02:40:33.998Z,99.90
2017-12-08T02:43:01.728Z,99.90
2017-12-08T02:45:29.527Z,99.90
2017-12-08T02:47:57.395Z,99.90
2017-12-08T02:50:25.194Z,99.90
2017-12-08T02:52:53.847Z,99.90
2017-12-08T02:55:21.714Z,99.90
2017-12-08T02:57:49.582Z,99.90
2017-12-08T03:00:17.450Z,99.90
2017-12-08T03:02:45.316Z,99.90
2017-12-08T03:05:13.186Z,99.90
2017-12-08T03:07:41.050Z,99.90
2017-12-08T03:10:08.921Z,99.90
2017-12-08T03:12:36.785Z,99.90
2017-12-08T03:15:04.653Z,99.90
2017-12-08T03:17:32.520Z,99.90
2017-12-08T03:20:00.387Z,99.90
2017-12-08T03:22:28.254Z,99.90
2017-12-08T03:24:56.121Z,99.90
2017-12-08T03:27:23.989Z,99.90
2017-12-08T03:29:51.856Z,99.90
2017-12-08T03:32:19.621Z,99.90
2017-12-08T03:34:47.489Z,99.90
2017-12-08T03:37:15.356Z,99.90
2017-12-08T03:39:43.223Z,99.90
2017-12-08T03:42:11.090Z,99.90
2017-12-08T03:44:38.958Z,99.90
2017-12-08T03:47:06.829Z,99.90
2017-12-08T03:49:34.692Z,99.90
2017-12-08T03:52:02.559Z,99.90
2017-12-08T03:54:30.429Z,99.90
2017-12-08T03:56:58.294Z,99.90
2017-12-08T03:59:26.981Z,99.90
2017-12-08T04:01:54.848Z,99.90
2017-12-08T04:04:22.613Z,99.90
2017-12-08T04:06:50.480Z,99.90
2017-12-08T04:09:18.349Z,99.90
2017-12-08T04:11:46.215Z,99.90
2017-12-08T04:14:14.083Z,99.90
2017-12-08T04:16:41.945Z,99.90
2017-12-08T04:19:09.717Z,99.90
2017-12-08T04:21:37.581Z,99.90
2017-12-08T04:24:05.449Z,99.90
2017-12-08T04:26:33.315Z,99.90
2017-12-08T04:29:01.186Z,99.90
2017-12-08T04:31:29.051Z,99.90
2017-12-08T04:33:56.917Z,99.90
2017-12-08T04:36:24.785Z,99.90
2017-12-08T04:38:52.627Z,99.90
2017-12-08T04:41:20.519Z,99.90
2017-12-08T04:43:48.386Z,99.90
2017-12-08T04:46:16.250Z,99.90
2017-12-08T04:48:44.121Z,99.90
2017-12-08T04:51:11.989Z,99.90
2017-12-08T04:53:39.855Z,99.90
2017-12-08T04:56:07.724Z,99.90
2017-12-08T04:58:36.410Z,99.90
2017-12-08T05:01:04.285Z,99.90
2017-12-08T05:03:32.144Z,99.90
2017-12-08T05:06:00.013Z,99.90
2017-12-08T05:08:27.879Z,99.90
2017-12-08T05:10:55.751Z,99.90
2017-12-08T05:13:23.614Z,99.90
2017-12-08T05:15:51.481Z,99.90
2017-12-08T05:18:19.349Z,99.90
2017-12-08T05:20:47.266Z,99.90
2017-12-08T05:23:15.902Z,99.90
2017-12-08T05:25:43.771Z,99.90
2017-12-08T05:28:11.636Z,99.90
2017-12-08T05:30:39.432Z,99.90
2017-12-08T05:33:07.269Z,99.90
2017-12-08T05:35:35.138Z,99.90
2017-12-08T05:38:02.893Z,99.90
2017-12-08T05:40:30.770Z,99.90
2017-12-08T05:42:58.645Z,99.90
2017-12-08T05:45:26.505Z,99.90
2017-12-08T05:47:54.372Z,99.90
2017-12-08T05:50:22.341Z,99.90
2017-12-08T05:52:50.211Z,99.90
2017-12-08T05:55:18.075Z,99.90
2017-12-08T05:57:45.942Z,99.90
2017-12-08T06:00:13.842Z,99.90
2017-12-08T06:02:41.780Z,99.90
2017-12-08T06:05:09.646Z,99.90
2017-12-08T06:07:37.514Z,99.90
2017-12-08T06:10:05.382Z,99.90
2017-12-08T06:12:33.251Z,99.90
2017-12-08T06:15:01.118Z,99.90
2017-12-08T06:17:28.983Z,99.90
2017-12-08T06:19:56.850Z,99.90
2017-12-08T06:22:24.724Z,99.90
2017-12-08T06:24:52.585Z,99.90
2017-12-08T06:27:20.457Z,99.90
2017-12-08T06:29:48.320Z,99.90
2017-12-08T06:32:16.187Z,99.90
2017-12-08T06:34:44.055Z,99.90
2017-12-08T06:37:11.921Z,99.90
2017-12-08T06:39:39.790Z,99.90
2017-12-08T06:42:07.656Z,99.90
2017-12-08T06:44:35.524Z,99.90
2017-12-08T06:47:03.391Z,99.90
2017-12-08T06:49:31.258Z,99.90
2017-12-08T06:51:59.125Z,99.90
2017-12-08T06:54:26.993Z,99.90
2017-12-08T06:56:54.866Z,99.90
2017-12-08T06:59:22.727Z,99.90
2017-12-08T07:01:50.594Z,99.90
2017-12-08T07:04:18.462Z,99.90
2017-12-08T07:06:47.149Z,99.90
2017-12-08T07:09:15.017Z,99.90
2017-12-08T07:11:42.884Z,99.90
2017-12-08T07:14:10.751Z,99.90
2017-12-08T07:16:38.617Z,99.90
2017-12-08T07:19:06.485Z,99.90
2017-12-08T07:21:34.352Z,99.90
2017-12-08T07:24:02.144Z,99.90
2017-12-08T07:26:29.986Z,99.90
2017-12-08T07:28:57.852Z,99.90
2017-12-08T07:31:25.723Z,99.90
2017-12-08T07:33:53.587Z,99.90
2017-12-08T07:36:21.453Z,99.90
2017-12-08T07:38:49.321Z,99.90
2017-12-08T07:41:17.192Z,99.90
2017-12-08T07:43:45.060Z,99.90
2017-12-08T07:46:12.924Z,99.90
2017-12-08T07:48:40.790Z,99.90
2017-12-08T07:51:08.658Z,99.90
2017-12-08T07:53:36.525Z,99.90
2017-12-08T07:56:04.393Z,99.90
2017-12-08T07:58:32.260Z,99.90
2017-12-08T08:01:00.134Z,99.90
2017-12-08T08:03:27.995Z,99.90
2017-12-08T08:05:55.861Z,99.90
2017-12-08T08:08:23.730Z,99.90
2017-12-08T08:10:51.522Z,99.90
2017-12-08T08:13:19.361Z,99.90
2017-12-08T08:15:47.229Z,99.90
2017-12-08T08:18:15.095Z,99.90
2017-12-08T08:20:42.963Z,99.90
2017-12-08T08:23:10.831Z,99.90
2017-12-08T08:25:38.698Z,99.90
2017-12-08T08:28:06.566Z,99.90
2017-12-08T08:30:34.433Z,99.90
2017-12-08T08:33:02.300Z,99.90
2017-12-08T08:35:30.168Z,99.90
2017-12-08T08:37:58.042Z,99.90
2017-12-08T08:40:25.902Z,99.90
2017-12-08T08:42:53.769Z,99.90
2017-12-08T08:45:21.636Z,99.90
2017-12-08T08:47:49.503Z,99.90
2017-12-08T08:50:17.370Z,99.90
2017-12-08T08:52:45.238Z,99.90
2017-12-08T08:55:13.105Z,99.90
2017-12-08T08:57:40.973Z,99.90
2017-12-08T09:00:08.839Z,99.70
2017-12-08T09:02:36.707Z,99.80
2017-12-08T09:05:04.575Z,99.40
2017-12-08T09:07:32.442Z,99.20
2017-12-08T09:10:00.309Z,99.30
2017-12-08T09:12:28.176Z,99.10
2017-12-08T09:14:56.044Z,97.90
2017-12-08T09:17:23.911Z,97.30
2017-12-08T09:19:51.779Z,95.50
2017-12-08T09:22:19.645Z,94.80
2017-12-08T09:24:47.513Z,95.30
2017-12-08T09:27:15.380Z,95.70
2017-12-08T09:29:43.248Z,95.90
2017-12-08T09:32:11.122Z,96.40
2017-12-08T09:34:38.981Z,96.60
2017-12-08T09:37:06.849Z,96.90
2017-12-08T09:39:34.717Z,96.60
2017-12-08T09:42:02.586Z,96.50
2017-12-08T09:44:30.452Z,96.30
2017-12-08T09:46:58.319Z,96.80
2017-12-08T09:49:26.186Z,97.10
2017-12-08T09:51:54.053Z,96.60
2017-12-08T09:54:21.921Z,96.30
2017-12-08T09:56:49.787Z,96.50
2017-12-08T09:59:17.654Z,96.70
2017-12-08T10:01:45.523Z,96.20
2017-12-08T10:04:13.390Z,96.10
2017-12-08T10:06:41.257Z,95.60
2017-12-08T10:09:09.125Z,96.20
2017-12-08T10:11:36.993Z,95.80
2017-12-08T10:14:04.860Z,95.30
2017-12-08T10:16:32.726Z,94.60
2017-12-08T10:19:00.594Z,94.40
2017-12-08T10:21:29.280Z,93.40
2017-12-08T10:23:57.147Z,93.40
2017-12-08T10:26:25.015Z,92.50
2017-12-08T10:28:52.881Z,92.60
2017-12-08T10:31:20.749Z,92.70
2017-12-08T10:33:48.616Z,92.00
2017-12-08T10:36:16.484Z,92.80
2017-12-08T10:38:44.354Z,93.20
2017-12-08T10:41:12.223Z,93.80
2017-12-08T10:43:40.086Z,93.80
2017-12-08T10:46:07.952Z,94.00
2017-12-08T10:48:35.820Z,93.90
2017-12-08T10:51:03.688Z,94.20
2017-12-08T10:53:31.557Z,93.80
2017-12-08T10:55:59.425Z,94.50
2017-12-08T10:58:27.290Z,94.30
2017-12-08T11:00:55.164Z,94.50
2017-12-08T11:03:23.026Z,95.00
2017-12-08T11:05:50.892Z,94.50
2017-12-08T11:08:18.759Z,94.20
2017-12-08T11:10:46.626Z,95.20
2017-12-08T11:13:14.493Z,95.50
2017-12-08T11:15:42.363Z,94.10
2017-12-08T11:18:10.227Z,95.00
2017-12-08T11:20:38.097Z,94.90
2017-12-08T11:23:05.962Z,94.60
2017-12-08T11:25:33.932Z,94.20
2017-12-08T11:28:01.800Z,94.90
2017-12-08T11:30:29.667Z,95.00
2017-12-08T11:32:57.537Z,94.00
2017-12-08T11:35:25.402Z,94.20
2017-12-08T11:37:54.088Z,93.90
2017-12-08T11:40:21.955Z,93.90
2017-12-08T11:42:49.822Z,94.50
2017-12-08T11:45:17.690Z,94.00
2017-12-08T11:47:45.557Z,94.70
2017-12-08T11:50:13.428Z,94.70
2017-12-08T11:52:41.292Z,95.00
2017-12-08T11:55:09.159Z,94.80
2017-12-08T11:57:37.026Z,95.10
2017-12-08T12:00:04.893Z,95.50
2017-12-08T12:02:32.761Z,95.60
2017-12-08T12:05:00.628Z,96.00
2017-12-08T12:07:28.497Z,95.40
2017-12-08T12:09:56.362Z,95.50
2017-12-08T12:12:24.230Z,95.00
2017-12-08T12:14:52.097Z,95.40
2017-12-08T12:17:19.964Z,95.50
2017-12-08T12:19:47.832Z,94.70
2017-12-08T12:22:15.699Z,94.80
2017-12-08T12:24:43.565Z,95.00
2017-12-08T12:27:11.433Z,95.00
2017-12-08T12:29:39.301Z,95.00
2017-12-08T12:32:07.168Z,95.80
2017-12-08T12:34:35.037Z,95.70
2017-12-08T12:37:02.903Z,95.40
2017-12-08T12:39:30.771Z,94.80
2017-12-08T12:41:58.637Z,92.20
2017-12-08T12:44:26.504Z,86.20
2017-12-08T12:46:54.372Z,80.90
2017-12-08T12:49:22.240Z,79.20
2017-12-08T12:51:50.107Z,72.90
2017-12-08T12:54:17.974Z,68.90
2017-12-08T12:56:45.842Z,68.00
2017-12-08T12:59:13.709Z,65.80
2017-12-08T13:01:41.576Z,65.60
2017-12-08T13:04:09.443Z,63.00
2017-12-08T13:06:37.311Z,62.70
2017-12-08T13:09:05.179Z,61.40
2017-12-08T13:11:33.045Z,60.70
2017-12-08T13:14:00.913Z,63.00
2017-12-08T13:16:28.780Z,58.90
2017-12-08T13:18:56.650Z,61.20
2017-12-08T13:21:24.514Z,60.80
2017-12-08T13:23:52.381Z,64.10
2017-12-08T13:26:20.248Z,64.50
2017-12-08T13:28:48.115Z,64.10
2017-12-08T13:31:15.984Z,66.00
2017-12-08T13:33:43.851Z,65.60
2017-12-08T13:36:11.718Z,63.30
2017-12-08T13:38:40.405Z,64.60
2017-12-08T13:41:08.272Z,64.60
2017-12-08T13:43:36.140Z,65.10
2017-12-08T13:46:04.021Z,66.90
2017-12-08T13:48:31.875Z,67.40
2017-12-08T13:50:59.742Z,67.90
2017-12-08T13:53:49.318Z,68.90
2017-12-08T13:56:28.961Z,69.40
2017-12-08T13:58:56.829Z,71.40
2017-12-08T14:01:24.695Z,73.60
2017-12-08T14:03:52.565Z,78.30
2017-12-08T14:06:20.431Z,81.40
2017-12-08T14:08:48.297Z,83.50
2017-12-08T14:11:16.164Z,85.90
2017-12-08T14:13:44.032Z,88.50
2017-12-08T14:16:11.899Z,90.10
2017-12-08T14:18:39.769Z,90.40
2017-12-08T14:21:07.634Z,91.00
2017-12-08T14:23:35.505Z,90.70
2017-12-08T14:26:03.369Z,91.30
2017-12-08T14:28:31.236Z,91.70
2017-12-08T14:30:59.104Z,91.50
2017-12-08T14:33:26.970Z,91.60
2017-12-08T14:35:54.838Z,91.80
2017-12-08T14:38:22.707Z,91.80
2017-12-08T14:40:50.573Z,91.80
2017-12-08T14:43:18.440Z,91.40
2017-12-08T14:45:46.307Z,91.90
2017-12-08T14:48:14.072Z,91.70
2017-12-08T14:50:41.941Z,92.00
2017-12-08T14:53:09.806Z,92.30
2017-12-08T14:55:37.673Z,92.00
2017-12-08T14:58:05.546Z,91.90
2017-12-08T15:00:33.408Z,92.30
2017-12-08T15:03:01.277Z,92.10
2017-12-08T15:05:29.143Z,92.80
2017-12-08T15:07:57.011Z,92.80
2017-12-08T15:10:24.879Z,92.90
2017-12-08T15:12:52.746Z,93.20
2017-12-08T15:15:20.612Z,93.10
2017-12-08T15:17:48.480Z,93.40
2017-12-08T15:20:16.348Z,93.50
2017-12-08T15:22:44.214Z,93.90
2017-12-08T15:25:12.083Z,93.90
2017-12-08T15:27:39.949Z,94.00
2017-12-08T15:30:07.817Z,94.10
2017-12-08T15:32:35.684Z,93.60
2017-12-08T15:35:03.554Z,94.00
2017-12-08T15:37:31.418Z,94.80
2017-12-08T15:39:59.286Z,95.90
2017-12-08T15:42:27.080Z,93.80
2017-12-08T15:44:54.923Z,93.70
2017-12-08T15:47:22.785Z,94.00
2017-12-08T15:49:50.652Z,94.30
2017-12-08T15:52:18.523Z,94.40
2017-12-08T15:54:46.313Z,94.30
2017-12-08T15:57:14.152Z,94.90
2017-12-08T15:59:42.020Z,94.90
2017-12-08T16:02:09.888Z,94.70
2017-12-08T16:04:37.756Z,95.00
2017-12-08T16:07:05.621Z,95.20
2017-12-08T16:09:33.489Z,94.50
2017-12-08T16:12:01.356Z,94.40
2017-12-08T16:14:29.223Z,94.30
2017-12-08T16:16:57.091Z,94.70
2017-12-08T16:19:24.957Z,94.30
2017-12-08T16:21:52.825Z,94.50
2017-12-08T16:24:20.692Z,94.20
2017-12-08T16:26:48.559Z,94.30
2017-12-08T16:29:16.427Z,94.20
2017-12-08T16:31:44.293Z,94.20
2017-12-08T16:34:12.161Z,93.80
2017-12-08T16:36:40.030Z,94.10
2017-12-08T16:39:07.903Z,94.40
2017-12-08T16:41:35.764Z,94.20
2017-12-08T16:44:03.637Z,94.10
2017-12-08T16:46:31.500Z,94.00
2017-12-08T16:48:59.365Z,94.10
2017-12-08T16:51:27.260Z,94.40
2017-12-08T16:53:55.817Z,94.70
2017-12-08T16:56:23.685Z,94.70
2017-12-08T16:58:51.552Z,94.80
2017-12-08T17:01:19.421Z,95.30
2017-12-08T17:03:47.286Z,95.20
2017-12-08T17:06:15.154Z,95.10
2017-12-08T17:08:43.020Z,95.10
2017-12-08T17:11:10.887Z,94.90
2017-12-08T17:13:38.755Z,94.70
2017-12-08T17:16:06.623Z,94.40
2017-12-08T17:18:34.490Z,94.50
2017-12-08T17:21:02.358Z,94.40
2017-12-08T17:23:30.224Z,94.50
2017-12-08T17:25:58.092Z,94.70
2017-12-08T17:28:25.958Z,94.50
2017-12-08T17:30:56.419Z,94.40
2017-12-08T17:33:27.631Z,94.80
2017-12-08T17:35:57.705Z,94.80
2017-12-08T17:38:25.518Z,94.60
2017-12-08T17:40:53.386Z,95.00
2017-12-08T17:43:21.252Z,95.00
2017-12-08T17:45:49.121Z,95.10
2017-12-08T17:48:21.237Z,95.30
2017-12-08T17:50:51.477Z,95.20
2017-12-08T17:53:19.480Z,95.40
2017-12-08T17:55:47.956Z,95.50
2017-12-08T17:58:16.342Z,95.60
2017-12-08T18:00:44.209Z,95.70
2017-12-08T18:03:12.076Z,95.80
2017-12-08T18:05:41.604Z,95.80
2017-12-08T18:08:10.639Z,95.60
2017-12-08T18:10:38.544Z,95.60
2017-12-08T18:13:06.617Z,95.60
2017-12-08T18:15:34.729Z,95.50
2017-12-08T18:18:03.376Z,95.60
2017-12-08T18:20:31.448Z,95.60
2017-12-08T18:22:59.417Z,95.70
2017-12-08T18:25:27.284Z,95.70
2017-12-08T18:27:55.741Z,95.60
2017-12-08T18:30:23.634Z,95.70
2017-12-08T18:32:51.501Z,95.80
2017-12-08T18:35:19.373Z,95.80
2017-12-08T18:37:47.239Z,96.00
2017-12-08T18:40:15.106Z,96.20
2017-12-08T18:42:42.971Z,96.40
2017-12-08T18:45:10.839Z,96.60
2017-12-08T18:47:38.706Z,96.70
2017-12-08T18:50:06.573Z,96.70
2017-12-08T18:52:34.443Z,97.00
2017-12-08T18:55:02.309Z,96.70
2017-12-08T18:57:30.176Z,96.90
2017-12-08T18:59:58.045Z,97.10
2017-12-08T19:02:25.910Z,96.70
2017-12-08T19:04:54.648Z,97.30
2017-12-08T19:07:22.463Z,97.20
2017-12-08T19:09:50.334Z,97.90
2017-12-08T19:12:18.199Z,97.80
2017-12-08T19:14:46.066Z,98.00
2017-12-08T19:17:13.933Z,98.00
2017-12-08T19:19:41.800Z,97.80
2017-12-08T19:22:10.602Z,97.00
2017-12-08T19:24:40.552Z,97.40
2017-12-08T19:27:08.372Z,97.50
2017-12-08T19:29:36.240Z,97.60
2017-12-08T19:32:04.108Z,97.20
2017-12-08T19:34:33.510Z,97.50
2017-12-08T19:37:01.381Z,97.60
2017-12-08T19:39:29.269Z,97.80
2017-12-08T19:41:57.111Z,97.80
2017-12-08T19:44:24.978Z,98.00
2017-12-08T19:46:52.846Z,98.10
2017-12-08T19:49:20.713Z,98.30
2017-12-08T19:51:48.579Z,98.30
2017-12-08T19:54:16.447Z,98.40
2017-12-08T19:56:44.316Z,98.10
2017-12-08T19:59:12.285Z,98.40
2017-12-08T20:01:40.286Z,97.90
2017-12-08T20:04:08.124Z,97.90
2017-12-08T20:06:35.988Z,98.20
2017-12-08T20:09:03.856Z,97.80
2017-12-08T20:11:31.724Z,97.80
2017-12-08T20:13:59.591Z,97.70
2017-12-08T20:16:27.458Z,97.40
2017-12-08T20:18:55.325Z,97.30
2017-12-08T20:21:23.224Z,97.10
2017-12-08T20:23:51.881Z,97.20
2017-12-08T20:26:19.747Z,97.20
2017-12-08T20:28:47.614Z,97.20
2017-12-08T20:31:15.481Z,97.40
2017-12-08T20:33:43.349Z,97.50
2017-12-08T20:36:11.216Z,97.80
2017-12-08T20:38:39.083Z,97.90
2017-12-08T20:41:06.950Z,98.10
2017-12-08T20:43:34.818Z,98.20
2017-12-08T20:46:02.685Z,98.40
2017-12-08T20:48:30.552Z,98.40
2017-12-08T20:50:58.419Z,98.50
2017-12-08T20:53:26.286Z,98.50
2017-12-08T20:55:54.156Z,98.50
2017-12-08T20:58:22.022Z,98.70
2017-12-08T21:00:49.889Z,98.80
2017-12-08T21:03:17.758Z,98.70
2017-12-08T21:05:45.624Z,98.40
2017-12-08T21:08:13.491Z,98.40
2017-12-08T21:10:41.359Z,98.50
2017-12-08T21:13:09.226Z,98.50
2017-12-08T21:15:37.094Z,98.60
2017-12-08T21:18:04.961Z,98.50
2017-12-08T21:20:32.828Z,98.30
2017-12-08T21:23:00.557Z,98.30
2017-12-08T21:25:28.464Z,98.20
2017-12-08T21:27:56.327Z,98.10
2017-12-08T21:30:25.013Z,98.30
2017-12-08T21:32:52.881Z,98.10
2017-12-08T21:35:20.748Z,98.20
2017-12-08T21:37:48.636Z,98.20
2017-12-08T21:40:16.483Z,98.40
2017-12-08T21:42:44.350Z,98.40
2017-12-08T21:45:12.180Z,98.40
2017-12-08T21:47:39.984Z,98.40
2017-12-08T21:50:07.849Z,98.50
2017-12-08T21:52:35.720Z,98.40
2017-12-08T21:55:03.584Z,98.40
2017-12-08T21:57:31.451Z,98.30
2017-12-08T21:59:59.319Z,98.30
2017-12-08T22:02:27.186Z,98.20
2017-12-08T22:04:55.054Z,98.20
2017-12-08T22:07:22.922Z,98.20
2017-12-08T22:09:51.505Z,98.10
2017-12-08T22:12:19.373Z,98.10
2017-12-08T22:14:47.239Z,98.00
2017-12-08T22:17:15.108Z,97.90
2017-12-08T22:19:43.005Z,97.80
2017-12-08T22:22:10.842Z,97.80
2017-12-08T22:24:38.708Z,97.80
2017-12-08T22:27:06.587Z,97.80
2017-12-08T22:29:35.370Z,97.80
2017-12-08T22:32:03.232Z,97.80
2017-12-08T22:34:31.101Z,97.70
2017-12-08T22:36:58.832Z,97.80
2017-12-08T22:39:26.732Z,97.90
2017-12-08T22:41:54.599Z,97.80
2017-12-08T22:44:22.406Z,97.90
2017-12-08T22:46:50.911Z,97.90
2017-12-08T22:49:18.815Z,97.80
2017-12-08T22:51:46.785Z,97.90
2017-12-08T22:54:14.613Z,97.60
2017-12-08T22:56:42.330Z,97.70
2017-12-08T22:59:10.045Z,97.60
2017-12-08T23:01:37.948Z,97.40
2017-12-08T23:04:05.815Z,97.30
2017-12-08T23:06:33.786Z,97.20
2017-12-08T23:09:02.472Z,97.10
2017-12-08T23:11:30.340Z,97.10
2017-12-08T23:13:58.206Z,96.80
2017-12-08T23:16:26.074Z,97.00
2017-12-08T23:18:53.941Z,96.80
2017-12-08T23:21:21.807Z,96.90
2017-12-08T23:23:49.674Z,96.70
2017-12-08T23:26:17.541Z,96.60
2017-12-08T23:28:45.409Z,96.70
2017-12-08T23:31:13.277Z,96.60
2017-12-08T23:33:49.230Z,96.30
2017-12-08T23:36:19.788Z,96.60
2017-12-08T23:38:51.850Z,96.50
2017-12-08T23:41:23.872Z,96.10
2017-12-08T23:43:54.834Z,96.10
2017-12-08T23:46:34.638Z,96.30
2017-12-08T23:49:05.969Z,96.20
2017-12-08T23:51:36.579Z,96.20
2017-12-08T23:54:05.503Z,96.00
2017-12-08T23:56:33.322Z,96.10
2017-12-08T23:59:01.188Z,95.80
